createdAt,value
2018-07-28T00:00:45.141Z,6.87
2018-07-28T00:03:13.456Z,6.40
2018-07-28T00:05:41.382Z,6.53
2018-07-28T00:08:09.959Z,7.03
2018-07-28T00:10:38.309Z,6.87
2018-07-28T00:13:07.437Z,8.13
2018-07-28T00:15:36.570Z,7.03
2018-07-28T00:18:04.731Z,6.90
2018-07-28T00:20:33.979Z,6.37
2018-07-28T00:23:03.425Z,6.22
2018-07-28T00:25:38.797Z,7.20
2018-07-28T00:28:07.309Z,7.30
2018-07-28T00:30:37.069Z,6.65
2018-07-28T00:33:05.268Z,7.87
2018-07-28T00:35:33.253Z,7.45
2018-07-28T00:38:01.325Z,7.62
2018-07-28T00:40:30.066Z,7.25
2018-07-28T00:42:59.009Z,7.42
2018-07-28T00:45:27.153Z,7.33
2018-07-28T00:47:55.700Z,7.40
2018-07-28T00:50:24.484Z,7.67
2018-07-28T00:52:52.773Z,8.48
2018-07-28T00:55:20.972Z,8.23
2018-07-28T00:57:49.958Z,7.78
2018-07-28T01:00:18.480Z,7.92
2018-07-28T01:02:47.613Z,8.05
2018-07-28T01:05:15.778Z,7.08
2018-07-28T01:07:45.578Z,9.03
2018-07-28T01:10:13.886Z,7.20
2018-07-28T01:12:42.693Z,7.22
2018-07-28T01:15:12.808Z,7.67
2018-07-28T01:17:41.429Z,8.38
2018-07-28T01:20:11.177Z,8.15
2018-07-28T01:22:39.991Z,7.12
2018-07-28T01:25:09.593Z,7.62
2018-07-28T01:27:38.165Z,8.58
2018-07-28T01:30:11.336Z,7.62
2018-07-28T01:32:39.644Z,8.78
2018-07-28T01:35:08.629Z,8.23
2018-07-28T01:37:37.907Z,7.97
2018-07-28T01:40:07.138Z,8.70
2018-07-28T01:42:35.468Z,11.12
2018-07-28T01:45:04.812Z,8.28
2018-07-28T01:47:33.268Z,9.38
2018-07-28T01:50:01.741Z,9.00
2018-07-28T01:52:30.781Z,8.98
2018-07-28T01:54:59.312Z,8.33
2018-07-28T01:57:27.398Z,9.18
2018-07-28T01:59:55.733Z,9.50
2018-07-28T02:02:25.829Z,9.40
2018-07-28T02:04:54.423Z,8.53
2018-07-28T02:07:22.618Z,9.30
2018-07-28T02:09:50.677Z,9.63
2018-07-28T02:12:18.791Z,9.48
2018-07-28T02:14:47.901Z,9.13
2018-07-28T02:17:16.447Z,9.38
2018-07-28T02:19:45.085Z,9.10
2018-07-28T02:22:13.670Z,9.33
2018-07-28T02:24:42.389Z,8.93
2018-07-28T02:27:11.105Z,9.88
2018-07-28T02:29:39.487Z,10.13
2018-07-28T02:32:07.592Z,10.90
2018-07-28T02:34:35.866Z,10.30
2018-07-28T02:37:04.102Z,11.43
2018-07-28T02:39:32.155Z,10.35
2018-07-28T02:42:00.307Z,9.78
2018-07-28T02:44:29.018Z,9.28
2018-07-28T02:46:57.272Z,9.45
2018-07-28T02:49:25.790Z,9.98
2018-07-28T02:51:53.832Z,10.15
2018-07-28T02:54:22.858Z,9.98
2018-07-28T02:56:50.762Z,11.08
2018-07-28T02:59:19.041Z,10.68
2018-07-28T03:01:47.637Z,10.28
2018-07-28T03:04:16.790Z,10.50
2018-07-28T03:06:45.741Z,11.22
2018-07-28T03:09:14.233Z,10.70
2018-07-28T03:11:43.374Z,11.30
2018-07-28T03:14:11.643Z,11.53
2018-07-28T03:16:39.656Z,11.68
2018-07-28T03:19:08.126Z,11.48
2018-07-28T03:21:36.201Z,11.78
2018-07-28T03:24:04.677Z,11.85
2018-07-28T03:26:33.509Z,12.40
2018-07-28T03:29:01.608Z,15.08
2018-07-28T03:31:29.813Z,14.80
2018-07-28T03:33:58.765Z,13.75
2018-07-28T03:36:27.308Z,12.15
2018-07-28T03:38:55.981Z,13.58
2018-07-28T03:41:25.025Z,13.40
2018-07-28T03:43:53.372Z,12.10
2018-07-28T03:46:21.584Z,11.35
2018-07-28T03:48:50.637Z,11.40
2018-07-28T03:51:19.441Z,12.00
2018-07-28T03:53:47.533Z,11.80
2018-07-28T03:56:15.668Z,11.78
2018-07-28T03:58:44.124Z,10.70
2018-07-28T04:01:12.352Z,11.35
2018-07-28T04:03:40.641Z,11.83
2018-07-28T04:06:08.830Z,11.12
2018-07-28T04:08:36.692Z,11.28
2018-07-28T04:11:04.699Z,12.00
2018-07-28T04:13:34.112Z,12.60
2018-07-28T04:16:03.364Z,13.18
2018-07-28T04:18:31.653Z,11.63
2018-07-28T04:21:00.471Z,12.90
2018-07-28T04:23:29.402Z,15.48
2018-07-28T04:25:58.759Z,13.60
2018-07-28T04:28:26.864Z,12.00
2018-07-28T04:30:55.565Z,12.95
2018-07-28T04:33:24.680Z,12.78
2018-07-28T04:35:53.762Z,13.45
2018-07-28T04:38:21.891Z,12.43
2018-07-28T04:40:50.443Z,12.13
2018-07-28T04:43:18.529Z,11.95
2018-07-28T04:45:48.065Z,12.15
2018-07-28T04:48:16.325Z,12.13
2018-07-28T04:50:45.313Z,12.43
2018-07-28T04:53:14.357Z,12.37
2018-07-28T04:55:44.345Z,13.13
2018-07-28T04:58:12.717Z,12.03
2018-07-28T05:00:40.906Z,12.82
2018-07-28T05:03:09.646Z,12.20
2018-07-28T05:05:38.335Z,13.98
2018-07-28T05:08:07.511Z,13.78
2018-07-28T05:10:36.105Z,12.18
2018-07-28T05:13:05.186Z,11.63
2018-07-28T05:15:33.148Z,11.28
2018-07-28T05:18:01.278Z,11.35
2018-07-28T05:20:30.004Z,10.90
2018-07-28T05:22:59.205Z,11.38
2018-07-28T05:25:27.356Z,12.07
2018-07-28T05:27:55.897Z,11.40
2018-07-28T05:30:24.008Z,11.18
2018-07-28T05:32:52.903Z,10.35
2018-07-28T05:35:21.002Z,10.53
2018-07-28T05:37:50.089Z,10.00
2018-07-28T05:40:18.243Z,10.10
2018-07-28T05:42:46.361Z,10.32
2018-07-28T05:45:15.505Z,9.75
2018-07-28T05:47:44.532Z,10.35
2018-07-28T05:50:13.453Z,8.73
2018-07-28T05:52:41.601Z,10.05
2018-07-28T05:55:10.385Z,9.53
2018-07-28T05:57:38.865Z,10.15
2018-07-28T06:00:07.436Z,9.25
2018-07-28T06:02:36.347Z,10.03
2018-07-28T06:05:05.801Z,9.13
2018-07-28T06:07:34.521Z,9.63
2018-07-28T06:10:02.711Z,8.68
2018-07-28T06:12:31.949Z,9.20
2018-07-28T06:15:00.756Z,9.20
2018-07-28T06:17:29.421Z,9.50
2018-07-28T06:19:58.088Z,8.60
2018-07-28T06:22:27.499Z,9.03
2018-07-28T06:24:55.633Z,8.80
2018-07-28T06:27:24.670Z,8.40
2018-07-28T06:29:53.673Z,9.25
2018-07-28T06:32:23.434Z,8.13
2018-07-28T06:34:51.676Z,8.60
2018-07-28T06:37:19.858Z,9.18
2018-07-28T06:39:48.371Z,7.72
2018-07-28T06:42:16.947Z,7.72
2018-07-28T06:44:45.150Z,8.18
2018-07-28T06:47:13.408Z,7.55
2018-07-28T06:49:42.189Z,7.35
2018-07-28T06:52:10.771Z,7.87
2018-07-28T06:54:38.998Z,7.47
2018-07-28T06:57:07.290Z,7.70
2018-07-28T06:59:35.846Z,8.45
2018-07-28T07:02:04.133Z,7.42
2018-07-28T07:04:33.573Z,7.75
2018-07-28T07:07:01.788Z,6.80
2018-07-28T07:09:30.579Z,7.55
2018-07-28T07:12:01.003Z,7.17
2018-07-28T07:14:29.791Z,7.33
2018-07-28T07:16:58.473Z,7.22
2018-07-28T07:19:26.649Z,8.23
2018-07-28T07:21:55.220Z,7.28
2018-07-28T07:24:23.909Z,7.35
2018-07-28T07:26:52.490Z,7.10
2018-07-28T07:29:21.176Z,7.45
2018-07-28T07:31:50.096Z,7.65
2018-07-28T07:34:18.757Z,8.00
2018-07-28T07:36:47.282Z,7.83
2018-07-28T07:39:16.094Z,6.67
2018-07-28T07:41:44.739Z,7.25
2018-07-28T07:44:13.181Z,7.20
2018-07-28T07:46:42.136Z,6.15
2018-07-28T07:49:10.239Z,6.05
2018-07-28T07:51:39.337Z,6.47
2018-07-28T07:54:08.046Z,6.25
2018-07-28T07:56:37.053Z,5.78
2018-07-28T07:59:05.221Z,6.37
2018-07-28T08:01:34.193Z,6.03
2018-07-28T08:04:03.303Z,6.28
2018-07-28T08:06:31.710Z,6.30
2018-07-28T08:09:00.345Z,6.28
2018-07-28T08:11:29.801Z,6.67
2018-07-28T08:13:57.971Z,5.80
2018-07-28T08:16:26.593Z,6.17
2018-07-28T08:18:54.633Z,5.65
2018-07-28T08:21:27.229Z,5.72
2018-07-28T08:23:56.206Z,6.25
2018-07-28T08:26:24.721Z,6.10
2018-07-28T08:28:52.815Z,5.60
2018-07-28T08:31:21.201Z,5.47
2018-07-28T08:33:51.148Z,5.78
2018-07-28T08:36:19.744Z,5.67
2018-07-28T08:38:47.956Z,5.78
2018-07-28T08:41:16.893Z,5.50
2018-07-28T10:05:43.028Z,4.70
2018-07-28T10:08:11.905Z,4.67
2018-07-28T10:10:40.637Z,4.42
2018-07-28T10:13:08.492Z,4.60
2018-07-28T10:15:37.145Z,4.65
2018-07-28T10:18:05.761Z,5.12
2018-07-28T10:20:34.317Z,4.85
2018-07-28T10:23:02.426Z,4.70
2018-07-28T10:25:31.081Z,4.45
2018-07-28T10:27:59.173Z,4.08
2018-07-28T10:30:28.141Z,4.67
2018-07-28T10:32:56.829Z,4.72
2018-07-28T10:35:25.913Z,4.60
2018-07-28T10:37:54.361Z,4.00
2018-07-28T10:40:22.789Z,4.00
2018-07-28T10:42:51.408Z,4.87
2018-07-28T10:45:19.260Z,4.37
2018-07-28T10:47:49.640Z,4.00
2018-07-28T10:50:18.456Z,3.95
2018-07-28T10:52:46.651Z,3.30
2018-07-28T10:55:14.941Z,4.37
2018-07-28T10:57:42.920Z,4.37
2018-07-28T11:00:10.853Z,4.30
2018-07-28T11:02:39.380Z,3.80
2018-07-28T11:05:07.361Z,3.98
2018-07-28T11:07:36.011Z,3.72
2018-07-28T11:10:04.722Z,3.85
2018-07-28T11:12:32.925Z,4.05
2018-07-28T11:15:01.009Z,4.00
2018-07-28T11:17:29.649Z,4.28
2018-07-28T11:19:58.913Z,4.53
2018-07-28T11:22:27.072Z,4.35
2018-07-28T11:24:55.217Z,4.15
2018-07-28T11:27:23.399Z,4.83
2018-07-28T11:29:51.475Z,4.12
2018-07-28T11:32:31.373Z,4.53
2018-07-28T11:35:11.429Z,4.37
2018-07-28T11:37:54.928Z,4.10
2018-07-28T11:40:35.439Z,4.10
2018-07-28T11:43:09.919Z,3.98
2018-07-28T11:45:38.069Z,4.62
2018-07-28T11:48:06.905Z,4.42
2018-07-28T11:50:35.544Z,4.45
2018-07-28T11:53:03.862Z,4.50
2018-07-28T11:55:32.241Z,3.80
2018-07-28T11:58:00.821Z,4.80
2018-07-28T12:00:29.415Z,4.05
2018-07-28T12:02:57.553Z,4.70
2018-07-28T12:05:25.791Z,4.47
2018-07-28T12:07:53.936Z,4.28
2018-07-28T12:10:23.389Z,4.08
2018-07-28T12:12:52.222Z,3.87
2018-07-28T12:15:21.286Z,4.70
2018-07-28T12:17:49.805Z,4.22
2018-07-28T12:20:17.941Z,4.25
2018-07-28T12:22:46.688Z,4.08
2018-07-28T12:25:15.329Z,4.28
2018-07-28T12:27:43.397Z,3.90
2018-07-28T12:30:12.006Z,4.05
2018-07-28T12:32:40.705Z,3.95
2018-07-28T12:35:08.773Z,3.92
2018-07-28T12:37:37.573Z,3.70
2018-07-28T12:40:07.205Z,3.98
2018-07-28T12:42:35.927Z,4.15
2018-07-28T12:45:04.610Z,4.10
2018-07-28T12:47:32.777Z,3.90
2018-07-28T12:50:02.327Z,3.95
2018-07-28T12:52:30.494Z,3.83
2018-07-28T12:54:59.516Z,3.80
2018-07-28T12:57:27.844Z,4.05
2018-07-28T12:59:55.932Z,3.95
2018-07-28T13:02:24.442Z,4.03
2018-07-28T13:04:53.421Z,3.62
2018-07-28T13:07:22.461Z,4.00
2018-07-28T13:09:50.686Z,3.65
2018-07-28T13:12:19.447Z,3.47
2018-07-28T13:14:47.696Z,3.87
2018-07-28T13:17:16.959Z,3.72
2018-07-28T13:19:45.295Z,4.00
2018-07-28T13:22:14.227Z,3.90
2018-07-28T13:24:42.673Z,4.12
2018-07-28T13:27:11.164Z,3.95
2018-07-28T13:29:40.350Z,3.95
2018-07-28T13:32:09.386Z,3.90
2018-07-28T13:34:37.984Z,3.40
2018-07-28T13:37:07.889Z,3.87
2018-07-28T13:39:36.132Z,3.87
2018-07-28T13:42:04.871Z,4.10
2018-07-28T13:44:33.125Z,3.87
2018-07-28T13:47:01.253Z,4.00
2018-07-28T13:49:29.456Z,4.20
2018-07-28T13:51:58.613Z,4.10
2018-07-28T13:54:26.887Z,3.90
2018-07-28T13:56:54.877Z,4.20
2018-07-28T13:59:24.097Z,6.03
2018-07-28T14:01:52.751Z,5.47
2018-07-28T14:04:21.545Z,7.33
2018-07-28T14:06:50.109Z,8.98
2018-07-28T14:09:18.027Z,5.87
2018-07-28T14:11:46.354Z,5.28
2018-07-28T14:14:15.506Z,6.20
2018-07-28T14:16:43.722Z,7.22
2018-07-28T14:19:11.869Z,8.28
2018-07-28T14:21:40.052Z,7.67
2018-07-28T14:24:08.509Z,8.95
2018-07-28T14:26:36.729Z,8.15
2018-07-28T14:29:06.562Z,7.47
2018-07-28T14:31:35.218Z,7.42
2018-07-28T14:34:03.372Z,6.50
2018-07-28T14:36:31.545Z,6.10
2018-07-28T14:38:59.825Z,7.30
2018-07-28T14:41:27.957Z,5.90
2018-07-28T14:43:56.209Z,5.67
2018-07-28T14:46:24.468Z,5.62
2018-07-28T14:48:52.973Z,5.97
2018-07-28T14:51:21.556Z,6.75
2018-07-28T14:53:50.329Z,6.50
2018-07-28T14:56:18.465Z,6.83
2018-07-28T14:58:46.537Z,7.45
2018-07-28T15:01:15.154Z,7.37
2018-07-28T15:03:43.473Z,8.30
2018-07-28T15:06:11.388Z,7.37
2018-07-28T15:08:40.577Z,7.92
2018-07-28T15:11:08.736Z,8.33
2018-07-28T15:13:36.917Z,8.73
2018-07-28T15:16:06.267Z,8.08
2018-07-28T15:18:34.612Z,8.93
2018-07-28T15:21:02.976Z,9.10
2018-07-28T15:23:31.710Z,8.23
2018-07-28T15:25:59.828Z,9.05
2018-07-28T15:28:28.074Z,9.10
2018-07-28T15:30:56.019Z,9.60
2018-07-28T15:33:24.880Z,10.53
2018-07-28T15:35:53.804Z,9.48
2018-07-28T15:38:22.522Z,10.25
2018-07-28T15:40:50.916Z,9.45
2018-07-28T15:43:19.140Z,9.88
2018-07-28T15:45:47.734Z,10.30
2018-07-28T15:48:16.496Z,10.38
2018-07-28T15:50:45.202Z,10.88
2018-07-28T15:53:13.349Z,11.73
2018-07-28T15:55:42.365Z,11.85
2018-07-28T15:58:11.165Z,13.03
2018-07-28T16:00:39.325Z,14.35
2018-07-28T16:03:07.817Z,10.80
2018-07-28T16:05:36.245Z,12.60
2018-07-28T16:08:05.001Z,12.15
2018-07-28T16:10:33.742Z,12.43
2018-07-28T16:13:03.166Z,11.12
2018-07-28T16:15:32.057Z,10.78
2018-07-28T16:18:00.346Z,9.83
2018-07-28T16:20:28.473Z,8.98
2018-07-28T16:22:57.193Z,9.40
2018-07-28T16:25:25.457Z,10.13
2018-07-28T16:27:55.392Z,11.45
2018-07-28T16:30:24.041Z,10.75
2018-07-28T16:32:52.237Z,10.90
2018-07-28T16:35:21.105Z,11.83
2018-07-28T16:37:50.117Z,11.15
2018-07-28T16:40:18.475Z,9.83
2018-07-28T16:42:48.181Z,10.13
2018-07-28T16:45:16.404Z,10.30
2018-07-28T16:47:45.141Z,10.08
2018-07-28T16:50:13.373Z,10.03
2018-07-28T16:52:42.237Z,10.08
2018-07-28T16:55:10.837Z,10.30
2018-07-28T16:57:40.019Z,9.43
2018-07-28T17:00:09.689Z,8.13
2018-07-28T17:02:37.898Z,12.35
2018-07-28T17:05:06.305Z,8.90
2018-07-28T17:07:35.137Z,8.60
2018-07-28T17:10:03.496Z,9.15
2018-07-28T17:12:33.399Z,10.13
2018-07-28T17:15:01.549Z,11.85
2018-07-28T17:17:29.968Z,11.95
2018-07-28T17:19:58.110Z,10.98
2018-07-28T17:22:26.367Z,10.43
2018-07-28T17:24:55.985Z,13.83
2018-07-28T17:27:25.693Z,11.22
2018-07-28T17:29:54.193Z,11.85
2018-07-28T17:32:24.256Z,10.70
2018-07-28T17:34:53.232Z,11.00
2018-07-28T17:37:21.594Z,12.47
2018-07-28T17:39:50.252Z,12.50
2018-07-28T17:42:18.477Z,14.95
2018-07-28T17:44:47.325Z,13.15
2018-07-28T17:47:16.072Z,12.85
2018-07-28T17:49:43.988Z,12.47
2018-07-28T17:52:12.209Z,14.65
2018-07-28T17:54:40.607Z,17.07
2018-07-28T17:57:10.228Z,13.98
2018-07-28T17:59:39.093Z,15.78
2018-07-28T18:02:07.517Z,17.35
2018-07-28T18:04:35.769Z,16.82
2018-07-28T18:07:04.814Z,18.15
2018-07-28T18:09:33.397Z,20.37
2018-07-28T18:12:02.781Z,17.42
2018-07-28T18:14:32.309Z,17.60
2018-07-28T18:17:00.869Z,17.65
2018-07-28T18:19:28.991Z,17.98
2018-07-28T18:21:57.030Z,16.12
2018-07-28T18:24:25.189Z,15.53
2018-07-28T18:26:53.306Z,15.23
2018-07-28T18:29:21.224Z,15.00
2018-07-28T18:31:50.145Z,18.57
2018-07-28T18:34:18.233Z,13.93
2018-07-28T18:36:46.913Z,14.73
2018-07-28T18:39:15.076Z,14.50
2018-07-28T18:41:44.078Z,14.87
2018-07-28T18:44:12.841Z,15.13
2018-07-28T18:46:41.550Z,14.45
2018-07-28T18:49:10.274Z,14.03
2018-07-28T18:51:38.389Z,16.75
2018-07-28T18:54:07.432Z,15.05
2018-07-28T18:56:36.111Z,18.35
2018-07-28T18:59:04.234Z,16.70
2018-07-28T19:01:32.934Z,15.10
2018-07-28T19:04:01.002Z,17.30
2018-07-28T19:06:29.797Z,17.82
2018-07-28T19:09:03.587Z,21.45
2018-07-28T19:11:33.165Z,16.57
2018-07-28T19:14:07.261Z,15.78
2018-07-28T19:16:35.697Z,15.83
2018-07-28T19:19:09.869Z,14.15
2018-07-28T19:21:37.932Z,15.23
2018-07-28T19:24:05.953Z,12.23
2018-07-28T19:26:35.543Z,12.70
2018-07-28T19:29:09.413Z,12.25
2018-07-28T19:31:37.944Z,14.30
2018-07-28T19:34:06.568Z,14.80
2018-07-28T19:36:40.737Z,15.75
2018-07-28T19:39:10.625Z,20.00
2018-07-28T19:41:44.136Z,17.27
2018-07-28T19:44:13.627Z,18.23
2018-07-28T19:46:41.742Z,19.10
2018-07-28T19:49:10.740Z,20.35
2018-07-28T19:51:39.198Z,20.75
2018-07-28T19:54:07.960Z,19.50
2018-07-28T19:56:36.041Z,20.25
2018-07-28T19:59:05.012Z,19.35
2018-07-28T20:01:33.473Z,19.20
2018-07-28T20:04:01.977Z,21.42
2018-07-28T20:06:31.763Z,24.72
2018-07-28T20:09:00.117Z,26.05
2018-07-28T20:11:28.713Z,21.70
2018-07-28T20:15:00.370Z,15.50
2018-07-28T20:17:28.758Z,14.45
2018-07-28T20:19:57.005Z,17.60
2018-07-28T20:22:25.417Z,13.18
2018-07-28T20:24:53.691Z,13.95
2018-07-28T20:27:21.902Z,12.98
2018-07-28T20:29:50.257Z,12.93
2018-07-28T20:32:18.362Z,9.83
2018-07-28T20:34:46.609Z,7.35
2018-07-28T20:37:14.948Z,5.58
2018-07-28T20:39:43.774Z,5.70
2018-07-28T20:42:11.986Z,5.33
2018-07-28T20:44:40.928Z,4.62
2018-07-28T20:47:09.619Z,4.90
2018-07-28T20:49:38.470Z,5.72
2018-07-28T20:52:06.428Z,5.62
2018-07-28T20:54:34.910Z,4.85
2018-07-28T20:57:03.682Z,4.50
2018-07-28T20:59:32.805Z,5.72
2018-07-28T21:02:02.377Z,4.92
2018-07-28T21:04:30.446Z,5.00
2018-07-28T21:06:58.653Z,4.92
2018-07-28T21:09:27.304Z,4.55
2018-07-28T21:11:55.929Z,4.90
2018-07-28T21:14:25.307Z,5.45
2018-07-28T21:16:55.433Z,9.50
2018-07-28T21:19:24.179Z,7.45
2018-07-28T21:21:54.671Z,6.95
2018-07-28T21:24:22.697Z,6.35
2018-07-28T21:26:50.776Z,5.10
2018-07-28T21:29:19.133Z,5.30
2018-07-28T21:31:47.753Z,4.80
2018-07-28T21:34:15.870Z,5.40
2018-07-28T21:36:44.066Z,7.67
2018-07-28T21:39:12.444Z,5.90
2018-07-28T21:41:41.673Z,6.22
2018-07-28T21:44:09.817Z,6.03
2018-07-28T21:46:38.593Z,5.60
2018-07-28T21:49:07.030Z,5.17
2018-07-28T21:51:35.109Z,5.33
2018-07-28T21:54:03.265Z,4.45
2018-07-28T21:56:32.215Z,5.15
2018-07-28T21:59:01.634Z,5.35
2018-07-28T22:01:30.818Z,5.30
2018-07-28T22:04:02.512Z,4.95
2018-07-28T22:06:34.550Z,5.60
2018-07-28T22:09:02.937Z,5.60
2018-07-28T22:11:31.703Z,6.62
2018-07-28T22:13:59.919Z,7.58
2018-07-28T22:16:29.263Z,5.20
2018-07-28T22:18:57.180Z,7.15
2018-07-28T22:21:25.771Z,6.17
2018-07-28T22:23:53.841Z,7.40
2018-07-28T22:26:22.032Z,7.37
2018-07-28T22:28:50.226Z,10.78
2018-07-28T22:31:18.152Z,7.75
2018-07-28T22:33:46.309Z,8.73
2018-07-28T22:36:15.206Z,8.33
2018-07-28T22:38:44.218Z,6.25
2018-07-28T22:41:13.133Z,6.37
2018-07-28T22:43:41.570Z,6.75
2018-07-28T22:46:10.610Z,7.90
2018-07-28T22:48:39.052Z,6.42
2018-07-28T22:51:07.657Z,6.33
2018-07-28T22:53:36.041Z,8.85
2018-07-28T22:56:04.541Z,7.60
2018-07-28T22:58:33.129Z,7.22
2018-07-28T23:01:01.717Z,6.80
2018-07-28T23:03:30.638Z,7.05
2018-07-28T23:05:59.769Z,5.78
2018-07-28T23:08:27.861Z,7.10
2018-07-28T23:10:57.668Z,6.10
2018-07-28T23:13:26.276Z,6.72
2018-07-28T23:15:54.693Z,6.50
2018-07-28T23:18:23.477Z,8.10
2018-07-28T23:20:52.165Z,8.33
2018-07-28T23:23:20.525Z,10.55
2018-07-28T23:25:49.628Z,10.95
2018-07-28T23:28:18.181Z,13.62
2018-07-28T23:30:46.429Z,8.05
2018-07-28T23:33:16.457Z,8.63
2018-07-28T23:35:44.548Z,8.50
2018-07-28T23:38:14.497Z,19.12
2018-07-28T23:40:43.341Z,12.88
2018-07-28T23:43:12.014Z,12.28
2018-07-28T23:45:41.699Z,18.48
2018-07-28T23:48:10.261Z,24.65
2018-07-28T23:50:39.529Z,16.73
2018-07-28T23:53:07.701Z,11.68
2018-07-28T23:55:36.175Z,7.17
2018-07-28T23:58:04.290Z,11.22
